Time;durP1;ratioP1;P1;durP2;ratioP2;P2;SDS_P1;SDS_P2;PMS_P1;PMS_P2;Temp;Humidity;BMP_temperature;BMP_pressure;BME280_temperature;BME280_humidity;BME280_pressure;Samples;Min_cycle;Max_cycle;Signal;HPM_P1;HPM_P2
2023/10/03 00:00:58;;;;;;;22.45;12.70;;;15.30;99.00;;;;;;4998660;28;20038;-91
2023/10/03 00:03:28;;;;;;;23.58;12.18;;;15.30;99.50;;;;;;4990327;28;20034;-91
2023/10/03 00:05:57;;;;;;;23.27;13.02;;;15.30;99.20;;;;;;4997264;28;20030;-91
2023/10/03 00:08:24;;;;;;;23.98;10.63;;;15.20;98.60;;;;;;4995938;28;20053;-91
2023/10/03 00:10:55;;;;;;;23.00;13.32;;;15.20;98.60;;;;;;5003990;28;20050;-93
2023/10/03 00:13:26;;;;;;;22.48;12.32;;;15.20;99.50;;;;;;5012053;28;20033;-92
2023/10/03 00:15:53;;;;;;;19.83;12.40;;;15.20;98.70;;;;;;4996883;28;20113;-91
2023/10/03 00:18:22;;;;;;;25.77;12.02;;;15.10;99.20;;;;;;4999466;28;20085;-92
2023/10/03 00:21:08;;;;;;;19.70;11.30;;;15.00;98.30;;;;;;5009029;28;20027;-92
2023/10/03 00:23:36;;;;;;;22.58;11.02;;;14.90;98.90;;;;;;4997441;28;20026;-91
2023/10/03 00:26:15;;;;;;;24.48;13.23;;;14.90;98.80;;;;;;4998189;28;20029;-92
2023/10/03 00:28:41;;;;;;;21.13;11.93;;;14.80;98.90;;;;;;4988929;28;20033;-91
2023/10/03 00:31:13;;;;;;;22.05;12.30;;;14.80;99.40;;;;;;5016837;28;20034;-91
2023/10/03 00:33:44;;;;;;;21.80;11.57;;;14.80;99.70;;;;;;5000243;28;20036;-92
2023/10/03 00:36:24;;;;;;;20.25;12.57;;;14.80;99.30;;;;;;4999876;28;20037;-93
2023/10/03 00:38:55;;;;;;;24.65;13.02;;;14.80;99.20;;;;;;5016338;28;20030;-91
2023/10/03 00:41:22;;;;;;;19.90;11.85;;;14.80;98.80;;;;;;5004913;28;20029;-90
2023/10/03 00:44:04;;;;;;;21.45;11.05;;;14.70;99.00;;;;;;4993193;28;20030;-90
2023/10/03 00:46:33;;;;;;;18.45;10.02;;;14.80;99.20;;;;;;4986572;28;20548;-92
2023/10/03 00:49:09;;;;;;;23.77;10.70;;;14.80;98.90;;;;;;4997523;28;20455;-92
2023/10/03 00:51:40;;;;;;;24.60;12.25;;;14.70;98.30;;;;;;5004216;28;20101;-91
2023/10/03 00:54:06;;;;;;;26.95;11.05;;;14.80;97.90;;;;;;5005878;28;20030;-91
2023/10/03 00:56:32;;;;;;;21.67;12.20;;;14.80;97.10;;;;;;5008917;28;20026;-91
2023/10/03 00:59:02;;;;;;;19.98;11.43;;;14.70;97.90;;;;;;4998681;28;20025;-91
2023/10/03 01:01:36;;;;;;;21.27;11.27;;;14.70;98.10;;;;;;5018654;28;20021;-91
2023/10/03 01:04:28;;;;;;;21.80;11.52;;;14.60;98.40;;;;;;5002436;28;20034;-93
2023/10/03 01:06:58;;;;;;;19.73;9.68;;;14.60;99.50;;;;;;5001860;28;20109;-92
2023/10/03 01:09:33;;;;;;;21.13;10.70;;;14.60;99.50;;;;;;4987366;28;20022;-92
2023/10/03 01:12:11;;;;;;;19.23;11.50;;;14.60;99.60;;;;;;5004258;28;20037;-92
2023/10/03 01:14:42;;;;;;;24.58;13.02;;;14.60;99.20;;;;;;4994886;28;20346;-91
2023/10/03 01:17:13;;;;;;;23.58;11.75;;;14.60;99.40;;;;;;5016299;28;20061;-92
2023/10/03 01:19:43;;;;;;;17.90;10.48;;;14.60;99.40;;;;;;5001329;28;20026;-92
2023/10/03 01:22:15;;;;;;;18.92;9.85;;;14.60;99.00;;;;;;5011146;28;20054;-92
2023/10/03 01:24:41;;;;;;;21.02;11.27;;;14.60;99.10;;;;;;5003618;28;20076;-92
2023/10/03 01:27:11;;;;;;;17.42;10.73;;;14.60;99.00;;;;;;5000745;28;20072;-92
2023/10/03 01:29:37;;;;;;;18.58;10.40;;;14.60;99.40;;;;;;5017967;28;20040;-91
2023/10/03 01:32:08;;;;;;;24.83;11.07;;;14.50;98.80;;;;;;5002249;28;20034;-91
2023/10/03 01:34:41;;;;;;;22.92;11.75;;;14.50;99.90;;;;;;4999560;28;20030;-89
2023/10/03 01:37:06;;;;;;;18.90;11.20;;;14.60;99.90;;;;;;5016948;28;20026;-91
2023/10/03 01:39:33;;;;;;;27.60;14.50;;;14.60;99.90;;;;;;5017569;28;20025;-92
2023/10/03 01:41:59;;;;;;;23.92;11.88;;;14.60;99.90;;;;;;4997248;28;20149;-91
2023/10/03 01:44:28;;;;;;;16.85;11.25;;;14.70;99.90;;;;;;5001657;28;20038;-92
2023/10/03 01:46:56;;;;;;;19.70;10.63;;;14.60;99.90;;;;;;5017063;28;20081;-91
2023/10/03 01:49:29;;;;;;;20.40;11.68;;;14.60;99.90;;;;;;5014727;28;20027;-92
2023/10/03 01:51:58;;;;;;;18.13;10.77;;;14.60;99.90;;;;;;5000281;28;20497;-92
2023/10/03 01:54:27;;;;;;;22.55;11.23;;;14.70;99.90;;;;;;5002289;28;20038;-92
2023/10/03 01:56:56;;;;;;;22.33;11.77;;;14.70;99.90;;;;;;5001324;28;20033;-92
2023/10/03 01:59:22;;;;;;;20.13;10.27;;;14.80;99.90;;;;;;5001603;28;20461;-91
2023/10/03 02:01:47;;;;;;;20.95;10.98;;;14.80;99.90;;;;;;4995956;28;20033;-91
2023/10/03 02:04:27;;;;;;;22.58;11.85;;;14.70;99.90;;;;;;5005629;28;20408;-92
2023/10/03 02:06:53;;;;;;;21.52;14.05;;;14.70;99.90;;;;;;5018301;28;20041;-91
2023/10/03 02:09:21;;;;;;;21.25;9.95;;;14.50;99.90;;;;;;5011505;28;20026;-91
2023/10/03 02:11:52;;;;;;;20.10;10.90;;;14.40;99.90;;;;;;5011422;28;20063;-91
2023/10/03 02:14:19;;;;;;;21.83;11.45;;;14.40;99.90;;;;;;4998266;28;20022;-91
2023/10/03 02:16:48;;;;;;;23.38;11.68;;;14.40;99.90;;;;;;5000010;28;20441;-91
2023/10/03 02:19:14;;;;;;;23.90;13.77;;;14.40;99.90;;;;;;5000438;28;20033;-91
2023/10/03 02:21:46;;;;;;;22.63;12.15;;;14.50;99.90;;;;;;5018456;28;20021;-91
2023/10/03 02:24:16;;;;;;;20.20;11.40;;;14.50;99.90;;;;;;4998467;28;20023;-91
2023/10/03 02:26:48;;;;;;;20.25;9.43;;;14.50;99.90;;;;;;4980994;28;20415;-92
2023/10/03 02:29:19;;;;;;;19.88;9.43;;;14.40;99.90;;;;;;5010294;28;20381;-92
2023/10/03 02:31:58;;;;;;;20.90;11.27;;;14.40;99.90;;;;;;5019213;28;20026;-90
2023/10/03 02:34:27;;;;;;;24.20;11.80;;;14.40;99.90;;;;;;5006806;28;20037;-92
2023/10/03 02:36:55;;;;;;;22.77;11.30;;;14.50;99.90;;;;;;5001173;28;20099;-92
2023/10/03 02:39:25;;;;;;;23.80;9.95;;;14.40;99.90;;;;;;5002549;28;20409;-92
2023/10/03 02:41:54;;;;;;;19.40;10.70;;;14.40;99.90;;;;;;5010131;28;20445;-91
2023/10/03 02:44:20;;;;;;;24.75;13.32;;;14.30;99.90;;;;;;4987332;28;20101;-91
2023/10/03 02:46:46;;;;;;;23.02;12.50;;;14.30;99.90;;;;;;5011224;28;20018;-91
2023/10/03 02:49:13;;;;;;;21.17;10.73;;;14.10;99.90;;;;;;4997167;28;20124;-92
2023/10/03 02:51:41;;;;;;;22.63;11.73;;;14.20;99.90;;;;;;4987166;28;20081;-91
2023/10/03 02:54:12;;;;;;;20.30;11.30;;;14.20;99.90;;;;;;4999613;28;20524;-91
2023/10/03 02:56:38;;;;;;;21.65;11.65;;;14.30;99.90;;;;;;5000719;28;20034;-91
2023/10/03 02:59:07;;;;;;;21.02;10.30;;;14.40;99.90;;;;;;5018580;28;20404;-92
2023/10/03 03:01:52;;;;;;;22.85;12.02;;;14.50;99.90;;;;;;5002694;28;20497;-91
2023/10/03 03:04:23;;;;;;;27.13;12.30;;;14.60;99.90;;;;;;4995708;28;20112;-92
2023/10/03 03:06:51;;;;;;;18.63;12.10;;;14.80;99.90;;;;;;5012135;28;20026;-92
2023/10/03 03:09:23;;;;;;;23.92;14.60;;;14.80;99.90;;;;;;4997245;28;20045;-92
2023/10/03 03:12:00;;;;;;;24.10;13.07;;;14.90;99.90;;;;;;4986931;28;20125;-94
2023/10/03 03:14:31;;;;;;;22.27;11.25;;;14.80;99.90;;;;;;4989727;28;20412;-91
2023/10/03 03:16:57;;;;;;;20.52;11.23;;;14.90;99.90;;;;;;4996597;28;20042;-91
2023/10/03 03:19:38;;;;;;;24.65;12.63;;;15.00;99.90;;;;;;5013420;28;20138;-91
2023/10/03 03:22:09;;;;;;;23.63;13.10;;;15.00;99.90;;;;;;4998172;28;20023;-91
2023/10/03 03:24:35;;;;;;;22.45;13.07;;;15.00;99.90;;;;;;4999190;28;20451;-92
2023/10/03 03:27:12;;;;;;;26.33;14.35;;;15.10;99.90;;;;;;4999040;28;20036;-91
2023/10/03 03:29:47;;;;;;;24.35;14.60;;;15.10;99.90;;;;;;5017427;28;20029;-91
2023/10/03 03:32:17;;;;;;;29.17;13.85;;;15.10;99.90;;;;;;4999451;28;20034;-91
2023/10/03 03:34:52;;;;;;;21.98;13.73;;;15.10;99.90;;;;;;4996578;28;20416;-91
2023/10/03 03:37:21;;;;;;;21.90;11.60;;;15.00;99.90;;;;;;4995216;28;20034;-91
2023/10/03 03:39:54;;;;;;;23.15;14.05;;;15.00;99.90;;;;;;4997601;28;20117;-92
2023/10/03 03:42:46;;;;;;;23.85;13.02;;;14.90;99.90;;;;;;4995259;28;20037;-93
2023/10/03 03:45:21;;;;;;;23.05;13.35;;;14.80;99.90;;;;;;5000252;28;20057;-92
2023/10/03 03:47:54;;;;;;;23.63;12.90;;;14.80;99.90;;;;;;4991572;28;20081;-91
2023/10/03 03:50:37;;;;;;;25.85;13.68;;;14.80;99.90;;;;;;5018750;28;20030;-91
2023/10/03 03:53:04;;;;;;;21.63;12.90;;;14.90;99.90;;;;;;5013114;28;20014;-92
2023/10/03 03:55:31;;;;;;;22.25;12.30;;;14.90;99.90;;;;;;5023284;28;20125;-90
2023/10/03 03:57:59;;;;;;;26.60;13.02;;;14.90;99.90;;;;;;4998652;28;20026;-92
2023/10/03 04:00:31;;;;;;;24.77;11.32;;;14.90;99.90;;;;;;5010897;28;20057;-91
2023/10/03 04:03:00;;;;;;;20.48;11.82;;;14.80;99.90;;;;;;4995972;28;20569;-93
2023/10/03 04:05:29;;;;;;;22.67;11.38;;;14.80;99.90;;;;;;4994162;28;20029;-91
2023/10/03 04:07:55;;;;;;;24.13;12.35;;;14.80;99.90;;;;;;5013409;28;20022;-91
2023/10/03 04:10:23;;;;;;;22.95;11.77;;;14.80;99.90;;;;;;4987129;28;20030;-91
2023/10/03 04:12:52;;;;;;;23.33;12.32;;;14.80;99.90;;;;;;4994372;28;20022;-92
2023/10/03 04:15:22;;;;;;;23.73;11.85;;;14.70;99.90;;;;;;5006958;28;20018;-91
2023/10/03 04:17:58;;;;;;;23.02;13.23;;;14.70;99.90;;;;;;4997452;28;20056;-91
2023/10/03 04:20:39;;;;;;;22.02;10.93;;;14.70;99.90;;;;;;4993506;28;20034;-92
2023/10/03 04:23:16;;;;;;;22.42;11.98;;;14.60;99.90;;;;;;4998513;28;20034;-91
2023/10/03 04:25:42;;;;;;;23.48;11.80;;;14.60;99.90;;;;;;4995250;28;20028;-91
2023/10/03 04:28:11;;;;;;;22.88;11.35;;;14.60;99.90;;;;;;4995369;28;20050;-91
2023/10/03 04:30:39;;;;;;;26.50;14.27;;;14.60;99.90;;;;;;4999404;28;20029;-91
2023/10/03 04:33:05;;;;;;;22.40;11.88;;;14.60;99.90;;;;;;4988362;28;20038;-91
2023/10/03 04:35:35;;;;;;;22.05;13.75;;;14.70;99.90;;;;;;5006789;28;20081;-93
2023/10/03 04:38:04;;;;;;;22.42;11.25;;;14.70;99.90;;;;;;5012933;28;20040;-91
2023/10/03 04:40:36;;;;;;;21.30;12.05;;;14.70;99.90;;;;;;4989299;28;20026;-92
2023/10/03 04:43:11;;;;;;;26.30;12.45;;;14.70;99.90;;;;;;5013823;28;20041;-91
2023/10/03 04:45:40;;;;;;;21.88;12.18;;;14.70;99.90;;;;;;4996743;28;20057;-91
2023/10/03 04:48:12;;;;;;;26.30;14.00;;;14.70;99.90;;;;;;5004605;28;20029;-92
2023/10/03 04:50:40;;;;;;;21.85;12.65;;;14.70;99.90;;;;;;5008270;28;20459;-91
2023/10/03 04:53:14;;;;;;;23.75;13.00;;;14.80;99.90;;;;;;4990279;28;20022;-91
2023/10/03 04:55:44;;;;;;;20.85;12.40;;;14.70;99.90;;;;;;4999333;28;20485;-93
2023/10/03 04:58:23;;;;;;;24.58;11.07;;;14.70;99.90;;;;;;4993512;28;20043;-93
2023/10/03 05:00:49;;;;;;;24.52;13.30;;;14.70;99.90;;;;;;5010744;28;20594;-92
2023/10/03 05:03:14;;;;;;;24.48;12.60;;;14.80;99.90;;;;;;4990560;28;20030;-92
2023/10/03 05:05:48;;;;;;;20.38;13.95;;;14.80;99.90;;;;;;4980938;28;20029;-93
2023/10/03 05:08:14;;;;;;;20.73;11.68;;;14.80;99.90;;;;;;4997067;28;20034;-91
2023/10/03 05:10:40;;;;;;;22.20;11.23;;;14.70;99.90;;;;;;5010930;28;20106;-91
2023/10/03 05:13:10;;;;;;;20.92;9.98;;;14.80;99.90;;;;;;5005204;28;20417;-91
2023/10/03 05:15:38;;;;;;;25.08;11.52;;;14.80;99.90;;;;;;5011195;28;20044;-91
2023/10/03 05:18:06;;;;;;;19.30;12.45;;;14.90;99.90;;;;;;4994935;28;20030;-90
2023/10/03 05:20:36;;;;;;;22.88;11.55;;;14.90;99.90;;;;;;5014506;28;20018;-90
2023/10/03 05:23:05;;;;;;;22.50;11.18;;;14.90;99.90;;;;;;4997903;28;20050;-91
2023/10/03 05:25:36;;;;;;;19.92;10.65;;;14.90;99.90;;;;;;5013943;28;20022;-92
2023/10/03 05:28:03;;;;;;;22.30;11.80;;;14.90;99.90;;;;;;4989713;28;20035;-92
2023/10/03 05:30:31;;;;;;;20.80;12.13;;;15.00;99.90;;;;;;5011765;28;20022;-90
2023/10/03 05:33:00;;;;;;;20.27;11.52;;;15.00;99.90;;;;;;5006045;28;20030;-92
2023/10/03 05:35:33;;;;;;;18.17;10.82;;;15.00;99.90;;;;;;5018232;28;20507;-91
2023/10/03 05:38:13;;;;;;;19.42;11.85;;;15.10;99.90;;;;;;4999116;28;20018;-91
2023/10/03 05:40:39;;;;;;;;;;;15.20;99.90;;;;;;5007102;28;20044;-91
2023/10/03 05:43:05;;;;;;;17.05;9.65;;;15.20;99.90;;;;;;5000064;28;20427;-92
2023/10/03 05:45:31;;;;;;;21.38;10.02;;;15.20;99.90;;;;;;5001268;28;20551;-91
2023/10/03 05:47:59;;;;;;;19.00;10.07;;;15.30;99.90;;;;;;4999715;28;20113;-91
2023/10/03 05:50:25;;;;;;;18.15;10.20;;;15.30;99.90;;;;;;4998748;28;20022;-91
2023/10/03 05:52:51;;;;;;;16.13;10.30;;;15.40;99.90;;;;;;5003587;28;20033;-91
2023/10/03 05:55:17;;;;;;;18.38;10.52;;;15.40;99.90;;;;;;5018128;28;20237;-90
2023/10/03 05:57:43;;;;;;;16.85;9.90;;;15.40;99.90;;;;;;5017546;28;20033;-92
2023/10/03 06:00:18;;;;;;;19.45;8.73;;;15.40;99.90;;;;;;5000780;28;20034;-92
2023/10/03 06:02:47;;;;;;;16.80;10.15;;;15.50;99.90;;;;;;5010456;28;20034;-92
2023/10/03 06:05:14;;;;;;;16.85;9.27;;;15.50;99.90;;;;;;4999091;28;20023;-92
2023/10/03 06:07:46;;;;;;;15.93;9.68;;;15.50;99.90;;;;;;5016890;28;20036;-91
2023/10/03 06:10:12;;;;;;;15.65;10.50;;;15.60;99.30;;;;;;5018708;28;20026;-91
2023/10/03 06:12:42;;;;;;;17.58;9.75;;;15.70;99.40;;;;;;5002081;28;20036;-91
2023/10/03 06:15:12;;;;;;;18.13;9.63;;;15.70;99.10;;;;;;5001761;28;20037;-93
2023/10/03 06:17:40;;;;;;;14.82;9.63;;;15.80;98.60;;;;;;5002367;28;20149;-91
2023/10/03 06:20:06;;;;;;;;;;;15.80;98.50;;;;;;5002643;28;20508;-92
2023/10/03 06:22:33;;;;;;;16.52;9.30;;;15.90;98.00;;;;;;5001594;28;19905;-94
2023/10/03 06:27:47;;;;;;;15.13;8.82;;;16.10;96.80;;;;;;5008489;28;20022;-91
2023/10/03 06:30:17;;;;;;;16.15;9.68;;;16.10;96.40;;;;;;5012478;28;20044;-93
2023/10/03 06:33:05;;;;;;;17.90;9.27;;;16.20;96.30;;;;;;4994868;28;20034;-91
2023/10/03 06:35:32;;;;;;;14.55;9.10;;;16.20;96.40;;;;;;5005745;28;20027;-92
2023/10/03 06:38:15;;;;;;;15.02;8.55;;;16.20;96.30;;;;;;5016370;28;20030;-92
2023/10/03 06:40:47;;;;;;;13.98;9.85;;;16.20;96.30;;;;;;5014240;28;20030;-94
2023/10/03 06:43:21;;;;;;;14.55;10.00;;;16.30;95.70;;;;;;5011672;28;20121;-94
2023/10/03 06:46:17;;;;;;;14.57;9.77;;;16.30;95.60;;;;;;5027636;28;20054;-93
2023/10/03 06:52:34;;;;;;;13.90;8.32;;;16.40;95.70;;;;;;5004460;28;20061;-93
2023/10/03 06:55:44;;;;;;;12.90;9.10;;;16.40;95.60;;;;;;5000609;28;20046;-93
2023/10/03 06:58:36;;;;;;;18.38;8.70;;;16.40;94.90;;;;;;4999620;28;20031;-92
2023/10/03 07:01:05;;;;;;;12.85;7.93;;;16.50;94.70;;;;;;5005301;28;20049;-91
2023/10/03 07:03:31;;;;;;;14.23;8.32;;;16.50;93.80;;;;;;5012747;28;20086;-92
2023/10/03 07:05:58;;;;;;;13.38;7.78;;;16.70;93.60;;;;;;5006981;28;20014;-92
2023/10/03 07:08:27;;;;;;;13.00;8.38;;;16.70;94.10;;;;;;4998599;28;20037;-93
2023/10/03 07:10:53;;;;;;;16.13;7.88;;;16.70;93.20;;;;;;5000755;28;20400;-92
2023/10/03 07:13:20;;;;;;;13.60;8.75;;;16.70;93.10;;;;;;4981373;28;20030;-92
2023/10/03 07:15:46;;;;;;;11.13;7.68;;;16.80;93.00;;;;;;4996913;28;20098;-90
2023/10/03 07:18:11;;;;;;;11.40;8.20;;;16.80;92.60;;;;;;5001235;28;20072;-92
2023/10/03 07:20:47;;;;;;;12.15;8.93;;;16.80;92.40;;;;;;5000413;28;20488;-91
2023/10/03 07:23:12;;;;;;;11.77;7.25;;;16.90;91.80;;;;;;4998587;28;20114;-91
2023/10/03 07:25:55;;;;;;;11.68;8.00;;;16.90;91.40;;;;;;5011055;28;20046;-91
2023/10/03 07:35:58;;;;;;;10.20;7.32;;;17.10;91.40;;;;;;4984706;28;20069;-90
2023/10/03 07:42:05;;;;;;;13.70;8.43;;;17.20;91.00;;;;;;4960334;29;20111;-91
2023/10/03 07:44:37;;;;;;;13.90;8.10;;;17.30;91.40;;;;;;4946980;28;20053;-93
2023/10/03 07:47:13;;;;;;;11.90;8.07;;;17.40;90.40;;;;;;5013326;28;20037;-91
2023/10/03 07:49:51;;;;;;;11.48;8.20;;;17.50;90.00;;;;;;4999464;28;20040;-92
2023/10/03 07:52:52;;;;;;;13.23;7.47;;;17.60;89.60;;;;;;4990640;28;20026;-92
2023/10/03 07:55:51;;;;;;;13.45;8.30;;;17.80;87.20;;;;;;4930734;29;20479;-91
2023/10/03 07:58:20;;;;;;;;;;;18.00;86.50;;;;;;4916989;29;20080;-91
2023/10/03 08:00:46;;;;;;;10.30;8.18;;;18.20;85.50;;;;;;4932903;29;19919;-91
2023/10/03 08:03:12;;;;;;;11.65;7.72;;;18.30;86.00;;;;;;4963906;28;20146;-93
2023/10/03 08:05:39;;;;;;;11.70;8.20;;;18.40;83.70;;;;;;5001226;28;20022;-92
2023/10/03 08:08:05;;;;;;;9.63;7.05;;;18.50;83.40;;;;;;4999203;28;20086;-95
2023/10/03 08:11:06;;;;;;;10.90;7.53;;;18.70;83.00;;;;;;5004973;28;20018;-93
2023/10/03 08:13:38;;;;;;;9.57;7.15;;;18.90;81.90;;;;;;4993221;28;20027;-93
2023/10/03 08:16:45;;;;;;;11.00;5.90;;;19.00;81.30;;;;;;4990737;28;20442;-91
2023/10/03 08:20:05;;;;;;;10.02;7.18;;;19.30;79.50;;;;;;4972669;28;20073;-92
2023/10/03 08:22:55;;;;;;;10.02;7.07;;;19.70;78.70;;;;;;4982578;28;20046;-92
2023/10/03 08:25:34;;;;;;;10.98;6.65;;;20.30;75.80;;;;;;4956107;28;20038;-92
2023/10/03 08:28:09;;;;;;;10.23;6.70;;;20.80;72.00;;;;;;4965467;28;20514;-92
2023/10/03 08:30:47;;;;;;;12.50;6.32;;;21.20;69.80;;;;;;4975764;28;20496;-92
2023/10/03 08:33:36;;;;;;;9.55;6.53;;;21.60;70.10;;;;;;5013576;28;20069;-92
2023/10/03 08:36:16;;;;;;;9.18;5.80;;;21.90;67.90;;;;;;4997183;28;20112;-93
2023/10/03 08:38:48;;;;;;;8.70;6.38;;;22.40;63.80;;;;;;4997323;28;20025;-93
2023/10/03 08:41:37;;;;;;;8.65;6.55;;;22.70;63.30;;;;;;5002113;28;20113;-95
2023/10/03 08:46:55;;;;;;;12.82;6.18;;;23.30;59.90;;;;;;4998437;23;20137;-89
2023/10/03 08:49:26;;;;;;;8.55;6.72;;;23.60;58.50;;;;;;4990822;28;20065;-91
2023/10/03 08:51:52;;;;;;;8.13;6.43;;;23.80;57.40;;;;;;4979381;28;20500;-91
2023/10/03 08:54:18;;;;;;;9.93;5.85;;;24.00;57.50;;;;;;4975227;28;20057;-91
2023/10/03 08:56:44;;;;;;;7.90;5.70;;;24.20;56.30;;;;;;4976412;28;20023;-92
2023/10/03 08:59:10;;;;;;;10.57;7.05;;;24.30;55.30;;;;;;4977568;28;20090;-88
2023/10/03 09:01:45;;;;;;;10.10;5.97;;;24.50;54.80;;;;;;4976572;28;20019;-90
2023/10/03 09:04:21;;;;;;;11.80;7.40;;;24.50;54.30;;;;;;4975676;28;20023;-90
2023/10/03 09:06:47;;;;;;;11.65;6.50;;;24.50;53.00;;;;;;4973747;28;20046;-88
2023/10/03 09:09:13;;;;;;;10.18;7.30;;;24.60;54.50;;;;;;4975182;28;20027;-89
2023/10/03 09:11:51;;;;;;;8.82;6.53;;;24.70;54.60;;;;;;4973548;28;20037;-90
2023/10/03 09:14:20;;;;;;;10.95;5.75;;;24.70;54.00;;;;;;4966509;28;20052;-91
2023/10/03 09:16:50;;;;;;;11.18;7.72;;;24.60;55.50;;;;;;4974350;28;20037;-89
2023/10/03 09:19:26;;;;;;;10.88;6.90;;;24.60;55.30;;;;;;4967573;28;20038;-90
2023/10/03 09:21:55;;;;;;;10.60;6.82;;;24.40;56.10;;;;;;4957458;28;20051;-90
2023/10/03 09:24:22;;;;;;;11.20;6.78;;;24.40;55.80;;;;;;4978080;28;20485;-89
2023/10/03 09:27:07;;;;;;;7.50;6.28;;;24.40;56.20;;;;;;4987136;28;20086;-90
2023/10/03 09:29:33;;;;;;;7.80;6.50;;;24.40;56.30;;;;;;4973373;28;20031;-92
2023/10/03 09:32:17;;;;;;;8.95;6.50;;;24.40;56.90;;;;;;4978540;28;20058;-89
2023/10/03 09:34:44;;;;;;;8.65;6.35;;;24.50;57.50;;;;;;4971277;28;20058;-89
2023/10/03 09:37:10;;;;;;;9.25;6.63;;;24.40;57.10;;;;;;4977819;28;20030;-91
2023/10/03 09:39:47;;;;;;;7.90;6.32;;;24.40;56.70;;;;;;4983743;28;20031;-90
2023/10/03 09:42:17;;;;;;;9.45;7.00;;;24.70;56.30;;;;;;4976120;28;20033;-92
2023/10/03 09:44:43;;;;;;;12.77;6.57;;;25.00;55.40;;;;;;4975137;28;20509;-88
2023/10/03 09:47:10;;;;;;;9.65;6.88;;;24.90;55.00;;;;;;4972681;28;20027;-90
2023/10/03 09:49:38;;;;;;;10.18;6.82;;;24.90;55.30;;;;;;4977803;28;20023;-90
2023/10/03 09:52:09;;;;;;;10.68;6.63;;;25.00;55.60;;;;;;4977449;28;20035;-91
2023/10/03 09:54:39;;;;;;;11.75;5.95;;;24.80;54.80;;;;;;4972804;28;20034;-90
2023/10/03 09:57:28;;;;;;;9.05;6.43;;;24.70;55.90;;;;;;4978575;28;20054;-91
2023/10/03 09:59:52;;;;;;;9.95;6.57;;;24.60;56.30;;;;;;4973084;28;20043;-91
2023/10/03 10:02:33;;;;;;;11.43;7.35;;;24.60;56.80;;;;;;4982311;28;20027;-91
2023/10/03 10:05:06;;;;;;;10.27;7.18;;;24.50;56.90;;;;;;4973548;28;20023;-88
2023/10/03 10:07:51;;;;;;;10.27;7.20;;;24.50;57.40;;;;;;4971379;28;20536;-91
2023/10/03 10:10:19;;;;;;;14.13;7.32;;;24.60;57.10;;;;;;4977164;28;20133;-91
2023/10/03 10:13:05;;;;;;;10.68;7.22;;;25.00;56.30;;;;;;4980955;28;20522;-92
2023/10/03 10:15:31;;;;;;;9.63;5.97;;;25.30;55.70;;;;;;4974432;28;20053;-93
2023/10/03 10:17:57;;;;;;;13.98;7.22;;;25.50;55.90;;;;;;4979234;28;20022;-91
2023/10/03 10:20:38;;;;;;;11.27;6.70;;;25.70;53.90;;;;;;4979078;28;20027;-91
2023/10/03 10:23:06;;;;;;;8.13;6.25;;;26.00;54.00;;;;;;4978361;28;20058;-92
2023/10/03 10:25:42;;;;;;;11.48;6.97;;;26.10;53.00;;;;;;4980788;28;20058;-91
2023/10/03 10:28:17;;;;;;;9.85;5.78;;;26.20;52.30;;;;;;4983178;28;20023;-90
2023/10/03 10:31:15;;;;;;;10.73;6.50;;;26.10;53.80;;;;;;4981604;28;20105;-88
2023/10/03 10:33:43;;;;;;;9.48;6.13;;;25.80;53.90;;;;;;4980769;28;20078;-90
2023/10/03 10:36:10;;;;;;;10.13;6.68;;;25.40;56.60;;;;;;4980525;28;20026;-88
2023/10/03 10:38:35;;;;;;;;;;;25.10;56.70;;;;;;4981467;28;20034;-94
2023/10/03 10:41:27;;;;;;;;;;;;;;;;;;;;;
2023/10/03 10:44:13;;;;;;;11.90;7.68;;;24.50;59.70;;;;;;4982667;28;20035;-91
2023/10/03 10:46:44;;;;;;;12.90;7.95;;;24.30;60.80;;;;;;4978516;28;20077;-90
2023/10/03 10:49:35;;;;;;;9.15;8.25;;;24.30;61.90;;;;;;4982513;28;20027;-92
2023/10/03 10:52:01;;;;;;;11.45;7.38;;;24.20;62.20;;;;;;4981110;28;20022;-89
2023/10/03 10:54:28;;;;;;;13.40;6.47;;;24.00;63.90;;;;;;4981737;28;20449;-92
2023/10/03 10:57:05;;;;;;;11.40;8.70;;;23.90;63.80;;;;;;4981592;28;20027;-90
2023/10/03 10:59:31;;;;;;;11.07;7.88;;;23.90;64.50;;;;;;4980905;28;20652;-90
2023/10/03 11:02:00;;;;;;;9.48;7.30;;;23.90;65.00;;;;;;4979441;28;20034;-91
2023/10/03 11:04:27;;;;;;;14.52;7.57;;;23.90;65.60;;;;;;4983786;28;20022;-91
2023/10/03 11:06:53;;;;;;;;;;;23.90;65.20;;;;;;4990725;28;20027;-90
2023/10/03 11:09:20;;;;;;;11.00;7.80;;;23.90;65.70;;;;;;4971643;28;19913;-90
2023/10/03 11:11:46;;;;;;;;;;;23.80;65.90;;;;;;4975237;28;20027;-90
2023/10/03 11:14:12;;;;;;;11.00;7.45;;;23.70;64.90;;;;;;4981307;28;19950;-90
2023/10/03 11:16:38;;;;;;;10.35;7.93;;;23.70;65.60;;;;;;4986194;28;20126;-91
2023/10/03 11:19:06;;;;;;;10.23;7.43;;;23.60;65.80;;;;;;4980802;28;20022;-91
2023/10/03 11:21:33;;;;;;;9.80;7.45;;;23.50;66.00;;;;;;4978822;28;20027;-92
2023/10/03 11:24:13;;;;;;;;;;;23.40;65.80;;;;;;4981031;28;20074;-91
2023/10/03 11:26:53;;;;;;;8.63;5.80;;;23.50;65.70;;;;;;4981201;28;19941;-93
2023/10/03 11:29:48;;;;;;;11.23;7.90;;;23.50;65.20;;;;;;4982909;28;20033;-91
2023/10/03 11:32:29;;;;;;;11.93;6.35;;;23.50;65.50;;;;;;4984218;28;20061;-90
2023/10/03 11:34:57;;;;;;;8.45;6.07;;;23.50;64.90;;;;;;4968587;28;20123;-92
2023/10/03 11:37:39;;;;;;;8.63;6.32;;;23.50;64.70;;;;;;4979168;28;20033;-88
2023/10/03 11:40:07;;;;;;;7.65;5.55;;;23.50;64.70;;;;;;4979224;28;20026;-90
2023/10/03 11:42:49;;;;;;;9.55;6.15;;;23.60;63.80;;;;;;4978758;28;20148;-91
2023/10/03 11:45:18;;;;;;;17.13;5.15;;;23.70;62.10;;;;;;4979268;28;20026;-91
2023/10/03 11:47:59;;;;;;;10.45;5.78;;;23.70;63.50;;;;;;4973371;28;20046;-91
2023/10/03 11:50:25;;;;;;;10.30;5.22;;;23.60;62.60;;;;;;4980368;28;20038;-91
2023/10/03 11:52:56;;;;;;;12.85;6.15;;;23.70;62.90;;;;;;4978951;28;20026;-92
2023/10/03 11:55:23;;;;;;;11.95;5.85;;;23.70;62.40;;;;;;4979891;28;20433;-90
2023/10/03 11:57:49;;;;;;;8.30;5.55;;;23.80;60.60;;;;;;4982132;28;20033;-90
2023/10/03 12:00:15;;;;;;;8.68;5.50;;;23.90;60.70;;;;;;4979800;28;20065;-91
2023/10/03 12:02:44;;;;;;;10.90;7.25;;;24.20;60.20;;;;;;4979932;28;20030;-91
2023/10/03 12:05:11;;;;;;;10.60;6.18;;;24.10;59.40;;;;;;4979306;28;20023;-92
2023/10/03 12:07:39;;;;;;;12.75;5.60;;;24.00;59.20;;;;;;4988150;28;20055;-90
2023/10/03 12:10:10;;;;;;;10.70;5.90;;;23.90;60.60;;;;;;4980387;28;20080;-89
2023/10/03 12:12:36;;;;;;;11.13;5.55;;;24.00;60.40;;;;;;4980168;28;20046;-90
2023/10/03 12:15:02;;;;;;;10.13;6.13;;;24.20;59.60;;;;;;4980891;28;20034;-90
2023/10/03 12:17:27;;;;;;;10.02;6.60;;;24.30;60.50;;;;;;4995561;28;20035;-91
2023/10/03 12:19:53;;;;;;;10.50;5.95;;;24.40;60.40;;;;;;4979980;28;20085;-91
2023/10/03 12:22:19;;;;;;;9.80;6.40;;;24.30;59.40;;;;;;4978287;28;20030;-88
2023/10/03 12:24:44;;;;;;;12.32;5.90;;;24.30;59.40;;;;;;4977765;28;20030;-92
2023/10/03 12:27:10;;;;;;;10.00;5.80;;;24.20;58.70;;;;;;4979477;28;20138;-91
2023/10/03 12:29:37;;;;;;;10.55;6.47;;;24.10;58.60;;;;;;4980711;28;20560;-91
2023/10/03 12:32:03;;;;;;;12.32;6.85;;;24.20;58.70;;;;;;4977449;28;20030;-91
2023/10/03 12:34:30;;;;;;;15.18;4.88;;;24.70;57.00;;;;;;4970301;28;20408;-90
2023/10/03 12:36:55;;;;;;;15.70;6.40;;;25.20;56.40;;;;;;4979268;28;20023;-91
2023/10/03 12:39:24;;;;;;;10.35;6.05;;;25.40;53.90;;;;;;4982797;28;20023;-91
2023/10/03 12:41:50;;;;;;;16.05;6.53;;;25.10;55.90;;;;;;4972782;28;20051;-96
2023/10/03 12:44:17;;;;;;;9.38;6.57;;;24.70;56.40;;;;;;4985894;28;20058;-92
2023/10/03 12:46:42;;;;;;;10.35;5.85;;;24.80;55.90;;;;;;4986025;28;20083;-92
2023/10/03 12:49:08;;;;;;;10.32;6.35;;;25.40;54.20;;;;;;4982562;28;20034;-91
2023/10/03 12:51:34;;;;;;;11.63;6.18;;;25.90;53.60;;;;;;4992955;28;20050;-90
2023/10/03 12:53:59;;;;;;;8.25;6.57;;;26.10;52.50;;;;;;4992411;28;20125;-90
2023/10/03 12:56:27;;;;;;;12.00;5.88;;;25.80;54.00;;;;;;4975842;28;20416;-91
2023/10/03 12:58:53;;;;;;;10.65;6.63;;;25.50;53.60;;;;;;4977322;28;20023;-90
2023/10/03 13:01:18;;;;;;;14.68;5.45;;;25.60;53.10;;;;;;4980229;28;20029;-91
2023/10/03 13:03:46;;;;;;;14.07;6.85;;;25.60;53.70;;;;;;4971076;28;20027;-92
2023/10/03 13:06:14;;;;;;;11.80;5.15;;;25.40;54.20;;;;;;4981947;28;20054;-90
2023/10/03 13:08:42;;;;;;;8.60;5.60;;;25.10;56.00;;;;;;4978221;28;20069;-92
2023/10/03 13:11:07;;;;;;;13.38;6.85;;;24.80;56.90;;;;;;4982441;28;20029;-90
2023/10/03 13:13:34;;;;;;;14.75;7.05;;;24.70;57.50;;;;;;4983004;28;20031;-91
2023/10/03 13:16:00;;;;;;;9.73;6.70;;;24.90;56.80;;;;;;4983125;28;20552;-90
2023/10/03 13:18:26;;;;;;;8.50;6.35;;;25.30;56.50;;;;;;4984500;28;20042;-89
2023/10/03 13:20:55;;;;;;;15.63;6.28;;;25.70;53.40;;;;;;4985703;28;20133;-92